sensor_id;sensor_type;location;lat;lon;timestamp;P1;durP1;ratioP1;P2;durP2;ratioP2
65154;SDS011;51741;52.344;-1.580;2022-08-04T00:05:22;3.08;;;1.23;;
65154;SDS011;51741;52.344;-1.580;2022-08-04T00:10:35;1.20;;;1.10;;
65154;SDS011;51741;52.344;-1.580;2022-08-04T00:13:03;1.70;;;1.17;;
65154;SDS011;51741;52.344;-1.580;2022-08-04T00:15:31;2.38;;;1.05;;
65154;SDS011;51741;52.344;-1.580;2022-08-04T00:17:59;1.83;;;1.00;;
65154;SDS011;51741;52.344;-1.580;2022-08-04T00:20:30;1.65;;;1.10;;
65154;SDS011;51741;52.344;-1.580;2022-08-04T00:22:57;2.03;;;0.90;;
65154;SDS011;51741;52.344;-1.580;2022-08-04T00:25:25;1.38;;;1.10;;
65154;SDS011;51741;52.344;-1.580;2022-08-04T00:27:51;3.67;;;1.10;;
65154;SDS011;51741;52.344;-1.580;2022-08-04T00:30:17;1.95;;;1.08;;
65154;SDS011;51741;52.344;-1.580;2022-08-04T00:32:43;2.10;;;0.98;;
65154;SDS011;51741;52.344;-1.580;2022-08-04T00:35:09;1.55;;;0.95;;
65154;SDS011;51741;52.344;-1.580;2022-08-04T00:37:38;1.38;;;1.08;;
65154;SDS011;51741;52.344;-1.580;2022-08-04T00:42:53;0.97;;;0.90;;
65154;SDS011;51741;52.344;-1.580;2022-08-04T00:59:47;2.50;;;1.10;;
65154;SDS011;51741;52.344;-1.580;2022-08-04T01:16:23;2.57;;;0.90;;
65154;SDS011;51741;52.344;-1.580;2022-08-04T01:19:01;2.28;;;1.15;;
65154;SDS011;51741;52.344;-1.580;2022-08-04T01:24:18;1.65;;;0.90;;
65154;SDS011;51741;52.344;-1.580;2022-08-04T01:27:17;1.20;;;0.90;;
65154;SDS011;51741;52.344;-1.580;2022-08-04T01:29:51;1.38;;;0.90;;
65154;SDS011;51741;52.344;-1.580;2022-08-04T01:32:36;1.98;;;1.05;;
65154;SDS011;51741;52.344;-1.580;2022-08-04T01:35:10;1.27;;;1.17;;
65154;SDS011;51741;52.344;-1.580;2022-08-04T01:40:20;1.13;;;1.02;;
65154;SDS011;51741;52.344;-1.580;2022-08-04T01:42:45;1.67;;;0.90;;
65154;SDS011;51741;52.344;-1.580;2022-08-04T01:45:16;1.90;;;1.17;;
65154;SDS011;51741;52.344;-1.580;2022-08-04T01:47:45;1.27;;;1.00;;
65154;SDS011;51741;52.344;-1.580;2022-08-04T01:50:14;1.65;;;1.02;;
65154;SDS011;51741;52.344;-1.580;2022-08-04T01:52:41;1.73;;;1.05;;
65154;SDS011;51741;52.344;-1.580;2022-08-04T01:55:11;1.42;;;1.17;;
65154;SDS011;51741;52.344;-1.580;2022-08-04T01:57:43;1.25;;;0.90;;
65154;SDS011;51741;52.344;-1.580;2022-08-04T02:00:21;1.92;;;1.05;;
65154;SDS011;51741;52.344;-1.580;2022-08-04T02:02:48;3.00;;;1.25;;
65154;SDS011;51741;52.344;-1.580;2022-08-04T02:05:16;1.80;;;1.00;;
65154;SDS011;51741;52.344;-1.580;2022-08-04T02:07:49;3.00;;;1.27;;
65154;SDS011;51741;52.344;-1.580;2022-08-04T02:13:36;1.42;;;1.02;;
65154;SDS011;51741;52.344;-1.580;2022-08-04T02:21:15;1.27;;;0.90;;
65154;SDS011;51741;52.344;-1.580;2022-08-04T02:23:44;2.25;;;0.95;;
65154;SDS011;51741;52.344;-1.580;2022-08-04T02:26:18;2.53;;;1.02;;
65154;SDS011;51741;52.344;-1.580;2022-08-04T02:31:59;1.60;;;1.00;;
65154;SDS011;51741;52.344;-1.580;2022-08-04T02:34:31;1.35;;;0.98;;
65154;SDS011;51741;52.344;-1.580;2022-08-04T02:37:17;2.47;;;1.40;;
65154;SDS011;51741;52.344;-1.580;2022-08-04T02:39:45;2.15;;;1.10;;
65154;SDS011;51741;52.344;-1.580;2022-08-04T02:42:14;2.08;;;1.10;;
65154;SDS011;51741;52.344;-1.580;2022-08-04T02:44:40;1.70;;;1.13;;
65154;SDS011;51741;52.344;-1.580;2022-08-04T02:47:07;1.67;;;1.10;;
65154;SDS011;51741;52.344;-1.580;2022-08-04T02:49:35;1.45;;;0.90;;
65154;SDS011;51741;52.344;-1.580;2022-08-04T02:52:01;2.40;;;1.30;;
65154;SDS011;51741;52.344;-1.580;2022-08-04T02:54:31;2.58;;;1.38;;
65154;SDS011;51741;52.344;-1.580;2022-08-04T02:57:02;2.47;;;1.13;;
65154;SDS011;51741;52.344;-1.580;2022-08-04T03:00:10;2.20;;;1.00;;
65154;SDS011;51741;52.344;-1.580;2022-08-04T03:02:32;2.63;;;1.20;;
65154;SDS011;51741;52.344;-1.580;2022-08-04T03:05:18;2.25;;;1.38;;
65154;SDS011;51741;52.344;-1.580;2022-08-04T03:14:11;2.08;;;1.10;;
65154;SDS011;51741;52.344;-1.580;2022-08-04T03:22:58;1.50;;;0.95;;
65154;SDS011;51741;52.344;-1.580;2022-08-04T03:31:17;2.25;;;0.90;;
65154;SDS011;51741;52.344;-1.580;2022-08-04T03:47:31;2.03;;;1.00;;
65154;SDS011;51741;52.344;-1.580;2022-08-04T04:02:01;1.65;;;1.02;;
65154;SDS011;51741;52.344;-1.580;2022-08-04T04:10:22;1.10;;;0.95;;
65154;SDS011;51741;52.344;-1.580;2022-08-04T04:30:00;2.20;;;0.90;;
65154;SDS011;51741;52.344;-1.580;2022-08-04T04:35:06;0.90;;;0.80;;
65154;SDS011;51741;52.344;-1.580;2022-08-04T04:40:31;2.90;;;1.23;;
65154;SDS011;51741;52.344;-1.580;2022-08-04T04:48:37;1.23;;;1.10;;
65154;SDS011;51741;52.344;-1.580;2022-08-04T04:59:22;2.28;;;1.02;;
65154;SDS011;51741;52.344;-1.580;2022-08-04T05:04:41;2.13;;;1.30;;
65154;SDS011;51741;52.344;-1.580;2022-08-04T05:15:34;2.88;;;1.27;;
65154;SDS011;51741;52.344;-1.580;2022-08-04T05:18:04;2.97;;;1.10;;
65154;SDS011;51741;52.344;-1.580;2022-08-04T05:20:39;1.85;;;1.17;;
65154;SDS011;51741;52.344;-1.580;2022-08-04T05:23:17;2.58;;;1.30;;
65154;SDS011;51741;52.344;-1.580;2022-08-04T05:25:51;2.20;;;1.05;;
65154;SDS011;51741;52.344;-1.580;2022-08-04T05:28:33;1.52;;;1.10;;
65154;SDS011;51741;52.344;-1.580;2022-08-04T05:31:10;2.10;;;1.20;;
65154;SDS011;51741;52.344;-1.580;2022-08-04T05:33:42;1.92;;;1.17;;
65154;SDS011;51741;52.344;-1.580;2022-08-04T05:36:32;1.38;;;1.00;;
65154;SDS011;51741;52.344;-1.580;2022-08-04T05:39:05;2.47;;;0.93;;
65154;SDS011;51741;52.344;-1.580;2022-08-04T05:41:34;1.55;;;1.02;;
65154;SDS011;51741;52.344;-1.580;2022-08-04T05:44:00;1.80;;;1.00;;
65154;SDS011;51741;52.344;-1.580;2022-08-04T05:46:27;2.05;;;0.90;;
65154;SDS011;51741;52.344;-1.580;2022-08-04T05:48:54;1.25;;;0.98;;
65154;SDS011;51741;52.344;-1.580;2022-08-04T05:51:20;2.70;;;0.90;;
65154;SDS011;51741;52.344;-1.580;2022-08-04T05:53:47;1.38;;;0.90;;
65154;SDS011;51741;52.344;-1.580;2022-08-04T05:56:14;1.52;;;0.90;;
65154;SDS011;51741;52.344;-1.580;2022-08-04T05:58:41;1.73;;;0.73;;
65154;SDS011;51741;52.344;-1.580;2022-08-04T06:01:10;1.73;;;0.93;;
65154;SDS011;51741;52.344;-1.580;2022-08-04T06:03:38;1.98;;;0.98;;
65154;SDS011;51741;52.344;-1.580;2022-08-04T06:06:05;1.83;;;0.90;;
65154;SDS011;51741;52.344;-1.580;2022-08-04T06:08:33;2.50;;;1.08;;
65154;SDS011;51741;52.344;-1.580;2022-08-04T06:11:01;1.63;;;0.90;;
65154;SDS011;51741;52.344;-1.580;2022-08-04T06:13:29;3.40;;;1.10;;
65154;SDS011;51741;52.344;-1.580;2022-08-04T06:15:57;1.65;;;1.00;;
65154;SDS011;51741;52.344;-1.580;2022-08-04T06:18:27;1.63;;;1.05;;
65154;SDS011;51741;52.344;-1.580;2022-08-04T06:20:53;1.98;;;0.98;;
65154;SDS011;51741;52.344;-1.580;2022-08-04T06:23:22;1.60;;;1.00;;
65154;SDS011;51741;52.344;-1.580;2022-08-04T06:25:53;2.17;;;1.10;;
65154;SDS011;51741;52.344;-1.580;2022-08-04T06:28:21;1.77;;;0.88;;
65154;SDS011;51741;52.344;-1.580;2022-08-04T06:30:48;1.58;;;1.10;;
65154;SDS011;51741;52.344;-1.580;2022-08-04T06:33:15;2.85;;;1.38;;
65154;SDS011;51741;52.344;-1.580;2022-08-04T06:35:51;2.03;;;1.00;;
65154;SDS011;51741;52.344;-1.580;2022-08-04T06:38:21;2.13;;;1.00;;
65154;SDS011;51741;52.344;-1.580;2022-08-04T06:40:48;1.50;;;0.93;;
65154;SDS011;51741;52.344;-1.580;2022-08-04T06:43:14;1.65;;;0.90;;
65154;SDS011;51741;52.344;-1.580;2022-08-04T06:45:42;1.40;;;1.15;;
65154;SDS011;51741;52.344;-1.580;2022-08-04T06:48:10;2.05;;;1.00;;
65154;SDS011;51741;52.344;-1.580;2022-08-04T06:50:38;2.95;;;1.10;;
65154;SDS011;51741;52.344;-1.580;2022-08-04T06:53:07;1.35;;;0.98;;
65154;SDS011;51741;52.344;-1.580;2022-08-04T06:55:33;1.77;;;1.10;;
65154;SDS011;51741;52.344;-1.580;2022-08-04T06:58:00;1.52;;;0.90;;
65154;SDS011;51741;52.344;-1.580;2022-08-04T07:00:26;1.90;;;0.88;;
65154;SDS011;51741;52.344;-1.580;2022-08-04T07:02:54;1.15;;;0.73;;
65154;SDS011;51741;52.344;-1.580;2022-08-04T07:05:21;2.05;;;0.90;;
65154;SDS011;51741;52.344;-1.580;2022-08-04T07:07:47;1.17;;;0.85;;
65154;SDS011;51741;52.344;-1.580;2022-08-04T07:10:14;1.13;;;0.93;;
65154;SDS011;51741;52.344;-1.580;2022-08-04T07:12:41;2.17;;;1.17;;
65154;SDS011;51741;52.344;-1.580;2022-08-04T07:15:08;1.70;;;0.90;;
65154;SDS011;51741;52.344;-1.580;2022-08-04T07:17:35;1.40;;;0.98;;
65154;SDS011;51741;52.344;-1.580;2022-08-04T07:20:02;1.38;;;0.77;;
65154;SDS011;51741;52.344;-1.580;2022-08-04T07:22:29;1.90;;;0.98;;
65154;SDS011;51741;52.344;-1.580;2022-08-04T07:24:56;1.90;;;1.10;;
65154;SDS011;51741;52.344;-1.580;2022-08-04T07:27:23;2.45;;;1.10;;
65154;SDS011;51741;52.344;-1.580;2022-08-04T07:29:50;1.73;;;0.90;;
65154;SDS011;51741;52.344;-1.580;2022-08-04T07:32:18;1.45;;;0.75;;
65154;SDS011;51741;52.344;-1.580;2022-08-04T07:34:46;2.88;;;0.93;;
65154;SDS011;51741;52.344;-1.580;2022-08-04T07:37:15;1.85;;;0.90;;
65154;SDS011;51741;52.344;-1.580;2022-08-04T07:39:42;2.22;;;0.95;;
65154;SDS011;51741;52.344;-1.580;2022-08-04T07:42:08;0.98;;;0.70;;
65154;SDS011;51741;52.344;-1.580;2022-08-04T07:44:34;2.47;;;0.82;;
65154;SDS011;51741;52.344;-1.580;2022-08-04T07:47:01;1.25;;;0.70;;
65154;SDS011;51741;52.344;-1.580;2022-08-04T07:49:29;1.27;;;0.82;;
65154;SDS011;51741;52.344;-1.580;2022-08-04T07:51:55;1.30;;;0.88;;
65154;SDS011;51741;52.344;-1.580;2022-08-04T07:54:21;0.60;;;0.60;;
65154;SDS011;51741;52.344;-1.580;2022-08-04T07:56:50;1.67;;;0.80;;
65154;SDS011;51741;52.344;-1.580;2022-08-04T07:59:17;2.65;;;0.80;;
65154;SDS011;51741;52.344;-1.580;2022-08-04T08:01:43;1.65;;;0.80;;
65154;SDS011;51741;52.344;-1.580;2022-08-04T08:04:11;1.35;;;0.85;;
65154;SDS011;51741;52.344;-1.580;2022-08-04T08:06:37;10.98;;;1.17;;
65154;SDS011;51741;52.344;-1.580;2022-08-04T08:09:14;5.35;;;1.20;;
65154;SDS011;51741;52.344;-1.580;2022-08-04T08:11:42;6.97;;;1.20;;
65154;SDS011;51741;52.344;-1.580;2022-08-04T08:14:09;3.22;;;1.02;;
65154;SDS011;51741;52.344;-1.580;2022-08-04T08:16:36;5.72;;;1.10;;
65154;SDS011;51741;52.344;-1.580;2022-08-04T08:19:03;3.08;;;1.05;;
65154;SDS011;51741;52.344;-1.580;2022-08-04T08:21:29;5.88;;;1.25;;
65154;SDS011;51741;52.344;-1.580;2022-08-04T08:23:55;13.65;;;1.63;;
65154;SDS011;51741;52.344;-1.580;2022-08-04T08:26:23;6.15;;;1.30;;
65154;SDS011;51741;52.344;-1.580;2022-08-04T08:28:49;6.68;;;1.25;;
65154;SDS011;51741;52.344;-1.580;2022-08-04T08:31:15;7.18;;;1.30;;
65154;SDS011;51741;52.344;-1.580;2022-08-04T08:33:40;6.65;;;1.20;;
65154;SDS011;51741;52.344;-1.580;2022-08-04T08:36:08;3.20;;;1.10;;
65154;SDS011;51741;52.344;-1.580;2022-08-04T08:52:09;5.05;;;1.10;;
65154;SDS011;51741;52.344;-1.580;2022-08-04T09:00:27;5.85;;;0.93;;
65154;SDS011;51741;52.344;-1.580;2022-08-04T09:09:01;9.20;;;0.98;;
65154;SDS011;51741;52.344;-1.580;2022-08-04T09:12:13;4.50;;;1.20;;
65154;SDS011;51741;52.344;-1.580;2022-08-04T09:20:21;6.28;;;1.30;;
65154;SDS011;51741;52.344;-1.580;2022-08-04T09:26:08;3.10;;;0.90;;
65154;SDS011;51741;52.344;-1.580;2022-08-04T09:29:16;1.92;;;0.93;;
65154;SDS011;51741;52.344;-1.580;2022-08-04T09:40:32;3.90;;;1.15;;
65154;SDS011;51741;52.344;-1.580;2022-08-04T09:43:11;2.45;;;0.88;;
65154;SDS011;51741;52.344;-1.580;2022-08-04T09:46:05;3.20;;;1.02;;
65154;SDS011;51741;52.344;-1.580;2022-08-04T09:54:24;1.38;;;0.82;;
65154;SDS011;51741;52.344;-1.580;2022-08-04T09:57:16;4.88;;;1.20;;
65154;SDS011;51741;52.344;-1.580;2022-08-04T10:02:31;9.43;;;1.38;;
65154;SDS011;51741;52.344;-1.580;2022-08-04T10:05:01;5.70;;;0.90;;
65154;SDS011;51741;52.344;-1.580;2022-08-04T10:12:51;1.73;;;0.73;;
65154;SDS011;51741;52.344;-1.580;2022-08-04T10:23:48;3.13;;;0.90;;
65154;SDS011;51741;52.344;-1.580;2022-08-04T10:29:11;2.05;;;0.80;;
65154;SDS011;51741;52.344;-1.580;2022-08-04T10:31:43;1.90;;;0.80;;
65154;SDS011;51741;52.344;-1.580;2022-08-04T10:34:18;2.28;;;0.82;;
65154;SDS011;51741;52.344;-1.580;2022-08-04T10:37:05;3.33;;;0.80;;
65154;SDS011;51741;52.344;-1.580;2022-08-04T10:42:37;3.50;;;1.35;;
65154;SDS011;51741;52.344;-1.580;2022-08-04T10:45:17;3.42;;;0.82;;
65154;SDS011;51741;52.344;-1.580;2022-08-04T10:47:58;1.10;;;0.77;;
65154;SDS011;51741;52.344;-1.580;2022-08-04T10:50:30;3.92;;;0.80;;
65154;SDS011;51741;52.344;-1.580;2022-08-04T10:53:06;4.97;;;0.73;;
65154;SDS011;51741;52.344;-1.580;2022-08-04T10:55:41;2.40;;;0.80;;
65154;SDS011;51741;52.344;-1.580;2022-08-04T10:58:18;5.85;;;0.90;;
65154;SDS011;51741;52.344;-1.580;2022-08-04T11:00:46;6.03;;;0.80;;
65154;SDS011;51741;52.344;-1.580;2022-08-04T11:03:19;3.78;;;0.65;;
65154;SDS011;51741;52.344;-1.580;2022-08-04T11:06:02;4.35;;;0.98;;
65154;SDS011;51741;52.344;-1.580;2022-08-04T11:08:34;3.63;;;0.80;;
65154;SDS011;51741;52.344;-1.580;2022-08-04T11:11:10;2.45;;;0.57;;
65154;SDS011;51741;52.344;-1.580;2022-08-04T11:13:39;1.48;;;0.70;;
65154;SDS011;51741;52.344;-1.580;2022-08-04T11:16:35;2.80;;;0.70;;
65154;SDS011;51741;52.344;-1.580;2022-08-04T11:19:07;3.65;;;0.60;;
65154;SDS011;51741;52.344;-1.580;2022-08-04T11:21:43;6.20;;;0.85;;
65154;SDS011;51741;52.344;-1.580;2022-08-04T11:24:18;1.52;;;0.60;;
65154;SDS011;51741;52.344;-1.580;2022-08-04T11:27:12;2.50;;;0.60;;
65154;SDS011;51741;52.344;-1.580;2022-08-04T11:29:50;3.47;;;0.60;;
65154;SDS011;51741;52.344;-1.580;2022-08-04T11:32:25;3.00;;;0.50;;
65154;SDS011;51741;52.344;-1.580;2022-08-04T11:35:21;3.28;;;0.93;;
65154;SDS011;51741;52.344;-1.580;2022-08-04T11:37:57;1.48;;;0.60;;
65154;SDS011;51741;52.344;-1.580;2022-08-04T11:40:38;5.22;;;0.50;;
65154;SDS011;51741;52.344;-1.580;2022-08-04T11:43:15;3.83;;;0.60;;
65154;SDS011;51741;52.344;-1.580;2022-08-04T11:45:55;3.35;;;0.52;;
65154;SDS011;51741;52.344;-1.580;2022-08-04T11:50:53;2.20;;;0.50;;
65154;SDS011;51741;52.344;-1.580;2022-08-04T11:53:22;1.42;;;0.60;;
65154;SDS011;51741;52.344;-1.580;2022-08-04T11:55:50;2.97;;;0.63;;
65154;SDS011;51741;52.344;-1.580;2022-08-04T11:58:22;1.43;;;0.70;;
65154;SDS011;51741;52.344;-1.580;2022-08-04T12:01:03;2.72;;;0.68;;
65154;SDS011;51741;52.344;-1.580;2022-08-04T12:04:00;2.88;;;0.50;;
65154;SDS011;51741;52.344;-1.580;2022-08-04T12:06:55;3.10;;;0.50;;
65154;SDS011;51741;52.344;-1.580;2022-08-04T12:09:27;1.92;;;0.80;;
65154;SDS011;51741;52.344;-1.580;2022-08-04T12:15:04;3.40;;;0.68;;
65154;SDS011;51741;52.344;-1.580;2022-08-04T12:17:42;0.88;;;0.50;;
65154;SDS011;51741;52.344;-1.580;2022-08-04T12:20:09;4.03;;;0.60;;
65154;SDS011;51741;52.344;-1.580;2022-08-04T12:22:45;1.63;;;0.55;;
65154;SDS011;51741;52.344;-1.580;2022-08-04T12:25:15;3.35;;;0.57;;
65154;SDS011;51741;52.344;-1.580;2022-08-04T12:28:11;0.55;;;0.40;;
65154;SDS011;51741;52.344;-1.580;2022-08-04T12:30:44;2.60;;;0.50;;
65154;SDS011;51741;52.344;-1.580;2022-08-04T12:33:37;3.75;;;0.80;;
65154;SDS011;51741;52.344;-1.580;2022-08-04T12:36:32;1.30;;;0.50;;
65154;SDS011;51741;52.344;-1.580;2022-08-04T12:39:19;1.58;;;0.50;;
65154;SDS011;51741;52.344;-1.580;2022-08-04T12:41:51;3.13;;;0.65;;
65154;SDS011;51741;52.344;-1.580;2022-08-04T12:44:46;2.40;;;0.60;;
65154;SDS011;51741;52.344;-1.580;2022-08-04T12:47:17;3.28;;;0.70;;
65154;SDS011;51741;52.344;-1.580;2022-08-04T12:49:48;2.85;;;0.75;;
65154;SDS011;51741;52.344;-1.580;2022-08-04T12:52:16;0.95;;;0.50;;
65154;SDS011;51741;52.344;-1.580;2022-08-04T12:54:44;2.35;;;1.08;;
65154;SDS011;51741;52.344;-1.580;2022-08-04T12:57:12;0.50;;;0.43;;
65154;SDS011;51741;52.344;-1.580;2022-08-04T12:59:43;1.10;;;0.50;;
65154;SDS011;51741;52.344;-1.580;2022-08-04T13:02:32;2.60;;;0.60;;
65154;SDS011;51741;52.344;-1.580;2022-08-04T13:05:02;3.63;;;0.63;;
65154;SDS011;51741;52.344;-1.580;2022-08-04T13:07:35;4.15;;;0.60;;
65154;SDS011;51741;52.344;-1.580;2022-08-04T13:10:13;4.93;;;0.80;;
65154;SDS011;51741;52.344;-1.580;2022-08-04T13:12:43;7.90;;;0.90;;
65154;SDS011;51741;52.344;-1.580;2022-08-04T13:15:27;2.92;;;0.70;;
65154;SDS011;51741;52.344;-1.580;2022-08-04T13:18:00;4.63;;;0.65;;
65154;SDS011;51741;52.344;-1.580;2022-08-04T13:20:32;2.42;;;0.70;;
65154;SDS011;51741;52.344;-1.580;2022-08-04T13:23:14;2.22;;;0.68;;
65154;SDS011;51741;52.344;-1.580;2022-08-04T13:25:41;1.88;;;0.57;;
65154;SDS011;51741;52.344;-1.580;2022-08-04T13:28:19;2.65;;;0.70;;
65154;SDS011;51741;52.344;-1.580;2022-08-04T13:30:52;1.38;;;0.55;;
65154;SDS011;51741;52.344;-1.580;2022-08-04T13:33:20;1.75;;;0.70;;
65154;SDS011;51741;52.344;-1.580;2022-08-04T13:35:58;0.98;;;0.40;;
65154;SDS011;51741;52.344;-1.580;2022-08-04T13:38:25;4.97;;;0.70;;
65154;SDS011;51741;52.344;-1.580;2022-08-04T13:40:52;3.17;;;0.65;;
65154;SDS011;51741;52.344;-1.580;2022-08-04T13:43:29;2.00;;;0.55;;
65154;SDS011;51741;52.344;-1.580;2022-08-04T13:46:12;1.98;;;0.63;;
65154;SDS011;51741;52.344;-1.580;2022-08-04T13:48:50;1.50;;;0.57;;
65154;SDS011;51741;52.344;-1.580;2022-08-04T13:51:17;1.35;;;0.60;;
65154;SDS011;51741;52.344;-1.580;2022-08-04T13:53:53;14.48;;;1.00;;
65154;SDS011;51741;52.344;-1.580;2022-08-04T13:56:21;4.72;;;0.98;;
65154;SDS011;51741;52.344;-1.580;2022-08-04T13:58:48;6.03;;;0.77;;
65154;SDS011;51741;52.344;-1.580;2022-08-04T14:01:24;3.22;;;0.50;;
65154;SDS011;51741;52.344;-1.580;2022-08-04T14:09:38;6.30;;;0.65;;
65154;SDS011;51741;52.344;-1.580;2022-08-04T14:12:05;3.65;;;0.50;;
65154;SDS011;51741;52.344;-1.580;2022-08-04T14:14:32;2.85;;;0.75;;
65154;SDS011;51741;52.344;-1.580;2022-08-04T14:22:27;3.42;;;0.50;;
65154;SDS011;51741;52.344;-1.580;2022-08-04T14:27:44;3.95;;;0.65;;
65154;SDS011;51741;52.344;-1.580;2022-08-04T14:30:28;2.60;;;0.47;;
65154;SDS011;51741;52.344;-1.580;2022-08-04T14:33:05;1.85;;;0.50;;
65154;SDS011;51741;52.344;-1.580;2022-08-04T14:35:33;1.88;;;0.43;;
65154;SDS011;51741;52.344;-1.580;2022-08-04T14:38:23;1.23;;;0.55;;
65154;SDS011;51741;52.344;-1.580;2022-08-04T14:40:48;5.10;;;0.70;;
65154;SDS011;51741;52.344;-1.580;2022-08-04T14:43:23;6.10;;;0.60;;
65154;SDS011;51741;52.344;-1.580;2022-08-04T14:45:49;3.80;;;0.60;;
65154;SDS011;51741;52.344;-1.580;2022-08-04T14:48:18;5.00;;;0.50;;
65154;SDS011;51741;52.344;-1.580;2022-08-04T14:50:46;3.15;;;0.50;;
65154;SDS011;51741;52.344;-1.580;2022-08-04T14:53:16;3.78;;;0.52;;
65154;SDS011;51741;52.344;-1.580;2022-08-04T14:55:45;2.55;;;0.55;;
65154;SDS011;51741;52.344;-1.580;2022-08-04T15:00:44;2.58;;;0.38;;
65154;SDS011;51741;52.344;-1.580;2022-08-04T15:03:10;1.02;;;0.40;;
65154;SDS011;51741;52.344;-1.580;2022-08-04T15:05:38;0.80;;;0.43;;
65154;SDS011;51741;52.344;-1.580;2022-08-04T15:08:05;1.90;;;0.50;;
65154;SDS011;51741;52.344;-1.580;2022-08-04T15:10:35;5.25;;;0.68;;
65154;SDS011;51741;52.344;-1.580;2022-08-04T15:13:01;2.10;;;0.50;;
65154;SDS011;51741;52.344;-1.580;2022-08-04T15:15:27;1.27;;;0.40;;
65154;SDS011;51741;52.344;-1.580;2022-08-04T15:17:53;4.57;;;0.65;;
65154;SDS011;51741;52.344;-1.580;2022-08-04T15:20:20;2.45;;;0.50;;
65154;SDS011;51741;52.344;-1.580;2022-08-04T15:22:46;3.28;;;0.82;;
65154;SDS011;51741;52.344;-1.580;2022-08-04T15:25:12;4.32;;;0.70;;
65154;SDS011;51741;52.344;-1.580;2022-08-04T15:27:40;2.58;;;0.63;;
65154;SDS011;51741;52.344;-1.580;2022-08-04T15:30:08;3.42;;;0.63;;
65154;SDS011;51741;52.344;-1.580;2022-08-04T15:32:37;2.13;;;0.60;;
65154;SDS011;51741;52.344;-1.580;2022-08-04T15:35:12;2.67;;;0.40;;
65154;SDS011;51741;52.344;-1.580;2022-08-04T15:40:36;0.75;;;0.50;;
65154;SDS011;51741;52.344;-1.580;2022-08-04T15:45:57;1.55;;;0.63;;
65154;SDS011;51741;52.344;-1.580;2022-08-04T15:48:29;1.60;;;0.60;;
65154;SDS011;51741;52.344;-1.580;2022-08-04T15:50:59;2.20;;;0.50;;
65154;SDS011;51741;52.344;-1.580;2022-08-04T15:53:28;7.30;;;0.68;;
65154;SDS011;51741;52.344;-1.580;2022-08-04T15:58:51;1.70;;;0.80;;
65154;SDS011;51741;52.344;-1.580;2022-08-04T16:01:21;2.60;;;0.75;;
65154;SDS011;51741;52.344;-1.580;2022-08-04T16:03:49;2.50;;;0.60;;
65154;SDS011;51741;52.344;-1.580;2022-08-04T16:11:38;3.08;;;0.60;;
65154;SDS011;51741;52.344;-1.580;2022-08-04T16:14:06;3.13;;;0.50;;
65154;SDS011;51741;52.344;-1.580;2022-08-04T16:21:50;2.87;;;0.50;;
65154;SDS011;51741;52.344;-1.580;2022-08-04T16:24:26;5.55;;;0.60;;
65154;SDS011;51741;52.344;-1.580;2022-08-04T16:26:53;2.40;;;0.57;;
65154;SDS011;51741;52.344;-1.580;2022-08-04T16:29:40;1.23;;;0.40;;
65154;SDS011;51741;52.344;-1.580;2022-08-04T16:34:41;3.60;;;0.60;;
65154;SDS011;51741;52.344;-1.580;2022-08-04T16:37:36;3.63;;;0.50;;
65154;SDS011;51741;52.344;-1.580;2022-08-04T16:42:56;1.58;;;0.50;;
65154;SDS011;51741;52.344;-1.580;2022-08-04T16:45:46;2.05;;;0.82;;
65154;SDS011;51741;52.344;-1.580;2022-08-04T16:48:19;2.70;;;0.77;;
65154;SDS011;51741;52.344;-1.580;2022-08-04T16:50:50;4.25;;;0.80;;
65154;SDS011;51741;52.344;-1.580;2022-08-04T16:53:18;1.08;;;0.50;;
65154;SDS011;51741;52.344;-1.580;2022-08-04T16:55:46;2.47;;;0.82;;
65154;SDS011;51741;52.344;-1.580;2022-08-04T16:58:14;4.60;;;0.63;;
65154;SDS011;51741;52.344;-1.580;2022-08-04T17:00:54;3.00;;;0.63;;
65154;SDS011;51741;52.344;-1.580;2022-08-04T17:03:20;2.50;;;0.68;;
65154;SDS011;51741;52.344;-1.580;2022-08-04T17:05:47;2.45;;;0.60;;
65154;SDS011;51741;52.344;-1.580;2022-08-04T17:08:13;3.47;;;0.60;;
65154;SDS011;51741;52.344;-1.580;2022-08-04T17:10:45;1.25;;;0.60;;
65154;SDS011;51741;52.344;-1.580;2022-08-04T17:13:22;2.70;;;0.60;;
65154;SDS011;51741;52.344;-1.580;2022-08-04T17:15:50;4.47;;;0.85;;
65154;SDS011;51741;52.344;-1.580;2022-08-04T17:18:21;2.03;;;0.47;;
65154;SDS011;51741;52.344;-1.580;2022-08-04T17:20:49;2.45;;;0.80;;
65154;SDS011;51741;52.344;-1.580;2022-08-04T17:23:22;3.58;;;0.60;;
65154;SDS011;51741;52.344;-1.580;2022-08-04T17:25:51;1.83;;;0.50;;
65154;SDS011;51741;52.344;-1.580;2022-08-04T17:28:28;1.73;;;0.55;;
65154;SDS011;51741;52.344;-1.580;2022-08-04T17:30:54;2.03;;;0.60;;
65154;SDS011;51741;52.344;-1.580;2022-08-04T17:33:22;2.67;;;0.70;;
65154;SDS011;51741;52.344;-1.580;2022-08-04T17:35:48;3.47;;;0.60;;
65154;SDS011;51741;52.344;-1.580;2022-08-04T17:38:15;1.75;;;0.50;;
65154;SDS011;51741;52.344;-1.580;2022-08-04T17:40:50;2.75;;;0.60;;
65154;SDS011;51741;52.344;-1.580;2022-08-04T17:43:17;3.72;;;0.68;;
65154;SDS011;51741;52.344;-1.580;2022-08-04T17:45:43;3.17;;;0.65;;
65154;SDS011;51741;52.344;-1.580;2022-08-04T17:48:16;2.30;;;0.52;;
65154;SDS011;51741;52.344;-1.580;2022-08-04T17:50:43;4.03;;;0.65;;
65154;SDS011;51741;52.344;-1.580;2022-08-04T17:53:09;1.65;;;0.70;;
65154;SDS011;51741;52.344;-1.580;2022-08-04T17:55:39;2.90;;;0.70;;
65154;SDS011;51741;52.344;-1.580;2022-08-04T17:58:16;2.33;;;1.00;;
65154;SDS011;51741;52.344;-1.580;2022-08-04T18:00:47;2.60;;;0.90;;
65154;SDS011;51741;52.344;-1.580;2022-08-04T18:03:26;2.70;;;0.90;;
65154;SDS011;51741;52.344;-1.580;2022-08-04T18:05:52;2.33;;;0.90;;
65154;SDS011;51741;52.344;-1.580;2022-08-04T18:08:22;2.55;;;0.90;;
65154;SDS011;51741;52.344;-1.580;2022-08-04T18:10:49;1.67;;;0.73;;
65154;SDS011;51741;52.344;-1.580;2022-08-04T18:13:16;2.08;;;0.88;;
65154;SDS011;51741;52.344;-1.580;2022-08-04T18:15:41;1.90;;;0.55;;
65154;SDS011;51741;52.344;-1.580;2022-08-04T18:18:14;3.70;;;0.77;;
65154;SDS011;51741;52.344;-1.580;2022-08-04T18:20:40;2.63;;;0.82;;
65154;SDS011;51741;52.344;-1.580;2022-08-04T18:23:08;2.85;;;0.85;;
65154;SDS011;51741;52.344;-1.580;2022-08-04T18:25:35;0.93;;;0.60;;
65154;SDS011;51741;52.344;-1.580;2022-08-04T18:28:03;6.30;;;1.00;;
65154;SDS011;51741;52.344;-1.580;2022-08-04T18:30:33;3.40;;;0.85;;
65154;SDS011;51741;52.344;-1.580;2022-08-04T18:33:00;1.25;;;0.63;;
65154;SDS011;51741;52.344;-1.580;2022-08-04T18:35:26;2.20;;;0.63;;
65154;SDS011;51741;52.344;-1.580;2022-08-04T18:37:52;3.42;;;0.70;;
65154;SDS011;51741;52.344;-1.580;2022-08-04T18:40:19;3.97;;;0.80;;
65154;SDS011;51741;52.344;-1.580;2022-08-04T18:42:45;2.55;;;0.80;;
65154;SDS011;51741;52.344;-1.580;2022-08-04T18:45:11;2.67;;;0.70;;
65154;SDS011;51741;52.344;-1.580;2022-08-04T18:47:37;2.42;;;1.10;;
65154;SDS011;51741;52.344;-1.580;2022-08-04T18:50:04;1.92;;;0.80;;
65154;SDS011;51741;52.344;-1.580;2022-08-04T18:52:30;4.00;;;0.90;;
65154;SDS011;51741;52.344;-1.580;2022-08-04T18:54:56;2.35;;;0.80;;
65154;SDS011;51741;52.344;-1.580;2022-08-04T18:57:23;4.32;;;0.80;;
65154;SDS011;51741;52.344;-1.580;2022-08-04T18:59:52;2.30;;;0.80;;
65154;SDS011;51741;52.344;-1.580;2022-08-04T19:02:19;3.00;;;0.60;;
65154;SDS011;51741;52.344;-1.580;2022-08-04T19:04:45;2.30;;;0.63;;
65154;SDS011;51741;52.344;-1.580;2022-08-04T19:07:11;4.38;;;1.10;;
65154;SDS011;51741;52.344;-1.580;2022-08-04T19:09:38;2.50;;;0.90;;
65154;SDS011;51741;52.344;-1.580;2022-08-04T19:12:05;1.73;;;1.00;;
65154;SDS011;51741;52.344;-1.580;2022-08-04T19:14:30;1.90;;;0.90;;
65154;SDS011;51741;52.344;-1.580;2022-08-04T19:16:56;3.10;;;0.85;;
65154;SDS011;51741;52.344;-1.580;2022-08-04T19:19:22;1.70;;;0.93;;
65154;SDS011;51741;52.344;-1.580;2022-08-04T19:21:48;5.47;;;1.10;;
65154;SDS011;51741;52.344;-1.580;2022-08-04T19:24:14;2.83;;;0.90;;
65154;SDS011;51741;52.344;-1.580;2022-08-04T19:26:40;1.83;;;0.90;;
65154;SDS011;51741;52.344;-1.580;2022-08-04T19:29:06;3.08;;;1.23;;